createdAt,value
2023-10-16T00:01:40.973Z,67.21
2023-10-16T00:04:07.759Z,67.97
2023-10-16T00:06:34.369Z,67.23
2023-10-16T00:09:00.699Z,66.20
2023-10-16T00:11:27.276Z,67.59
2023-10-16T00:13:53.597Z,67.65
2023-10-16T00:16:20.075Z,67.14
2023-10-16T00:18:46.663Z,66.52
2023-10-16T00:21:13.111Z,66.55
2023-10-16T00:23:39.449Z,66.57
2023-10-16T00:26:05.879Z,66.47
2023-10-16T00:28:32.188Z,65.71
2023-10-16T00:30:58.580Z,66.53
2023-10-16T00:33:25.056Z,66.50
2023-10-16T00:35:51.424Z,65.78
2023-10-16T00:38:17.724Z,66.08
2023-10-16T00:40:44.114Z,65.66
2023-10-16T00:43:11.599Z,65.43
2023-10-16T00:45:38.042Z,65.13
2023-10-16T00:48:04.582Z,64.46
2023-10-16T00:50:30.919Z,63.41
2023-10-16T00:52:57.206Z,63.69
2023-10-16T00:55:23.593Z,64.26
2023-10-16T00:57:49.977Z,65.72
2023-10-16T01:00:16.329Z,65.86
2023-10-16T01:02:42.862Z,65.44
2023-10-16T01:05:09.222Z,64.92
2023-10-16T01:07:35.550Z,64.77
2023-10-16T01:10:01.888Z,65.06
2023-10-16T01:12:28.264Z,64.98
2023-10-16T01:14:54.572Z,65.13
2023-10-16T01:17:21.014Z,65.33
2023-10-16T01:19:47.316Z,65.39
2023-10-16T01:22:13.644Z,65.59
2023-10-16T01:24:40.121Z,65.70
2023-10-16T01:27:06.534Z,64.41
2023-10-16T01:29:34.679Z,64.28
2023-10-16T01:32:01.162Z,64.71
2023-10-16T01:34:27.607Z,65.23
2023-10-16T01:36:54.215Z,65.02
2023-10-16T01:39:20.759Z,64.98
2023-10-16T01:41:47.095Z,65.00
2023-10-16T01:44:13.482Z,65.44
2023-10-16T01:46:39.952Z,66.15
2023-10-16T01:49:06.479Z,66.02
2023-10-16T01:51:32.902Z,66.29
2023-10-16T01:53:59.377Z,66.44
2023-10-16T01:56:25.781Z,66.26
2023-10-16T01:58:52.090Z,66.90
2023-10-16T02:01:18.501Z,67.32
2023-10-16T02:03:45.005Z,67.62
2023-10-16T02:06:11.429Z,67.63
2023-10-16T02:08:37.831Z,67.48
2023-10-16T02:11:04.140Z,67.85
2023-10-16T02:13:30.456Z,67.94
2023-10-16T02:15:57.083Z,67.30
2023-10-16T02:18:23.491Z,66.98
2023-10-16T02:20:51.066Z,66.74
2023-10-16T02:23:18.855Z,65.73
2023-10-16T02:25:45.213Z,65.11
2023-10-16T02:28:11.632Z,65.56
2023-10-16T02:30:38.118Z,65.62
2023-10-16T02:33:04.661Z,66.09
2023-10-16T02:35:31.093Z,66.07
2023-10-16T02:37:57.478Z,66.06
2023-10-16T02:40:23.821Z,64.32
2023-10-16T02:42:50.251Z,64.90
2023-10-16T02:45:16.781Z,64.67
2023-10-16T02:47:43.136Z,64.68
2023-10-16T02:50:09.496Z,64.87
2023-10-16T02:52:36.068Z,64.32
2023-10-16T02:55:02.462Z,63.98
2023-10-16T02:57:28.959Z,63.62
2023-10-16T02:59:55.574Z,62.95
2023-10-16T03:02:21.997Z,63.14
2023-10-16T03:04:48.330Z,63.77
2023-10-16T03:07:14.877Z,63.55
2023-10-16T03:09:41.302Z,63.04
2023-10-16T03:12:07.723Z,61.93
2023-10-16T03:14:34.185Z,62.35
2023-10-16T03:17:00.615Z,61.60
2023-10-16T03:19:26.956Z,61.54
2023-10-16T03:21:53.503Z,61.37
2023-10-16T03:24:19.886Z,62.06
2023-10-16T03:26:46.241Z,62.74
2023-10-16T03:29:12.782Z,63.27
2023-10-16T03:31:39.194Z,63.69
2023-10-16T03:34:05.645Z,64.14
2023-10-16T03:36:32.194Z,64.01
2023-10-16T03:38:58.623Z,64.05
2023-10-16T03:41:25.011Z,64.65
2023-10-16T03:43:51.448Z,64.19
2023-10-16T03:46:17.829Z,64.78
2023-10-16T03:48:44.265Z,64.80
2023-10-16T03:51:10.826Z,65.20
2023-10-16T03:53:37.173Z,65.33
2023-10-16T03:56:03.528Z,64.70
2023-10-16T03:58:29.977Z,64.93
2023-10-16T04:00:56.312Z,64.87
2023-10-16T04:03:22.733Z,65.00
2023-10-16T04:05:49.252Z,65.60
2023-10-16T04:08:15.596Z,65.48
2023-10-16T04:10:41.919Z,65.85
2023-10-16T04:13:08.434Z,66.06
2023-10-16T04:15:35.239Z,65.72
2023-10-16T04:18:01.675Z,65.55
2023-10-16T04:20:28.068Z,65.82
2023-10-16T04:22:54.398Z,65.30
2023-10-16T04:25:20.792Z,65.35
2023-10-16T04:27:47.466Z,64.92
2023-10-16T04:30:13.795Z,63.81
2023-10-16T04:32:40.159Z,64.56
2023-10-16T04:35:06.666Z,63.13
2023-10-16T04:37:32.992Z,63.28
2023-10-16T04:39:59.373Z,63.72
2023-10-16T04:42:25.987Z,64.36
2023-10-16T04:44:52.360Z,64.33
2023-10-16T04:47:19.025Z,64.21
2023-10-16T04:49:45.664Z,63.51
2023-10-16T04:52:12.028Z,62.44
2023-10-16T04:54:38.404Z,62.34
2023-10-16T04:57:05.977Z,63.08
2023-10-16T04:59:32.298Z,62.89
2023-10-16T05:01:58.755Z,62.48
2023-10-16T05:04:25.490Z,63.15
2023-10-16T05:06:52.108Z,63.02
2023-10-16T05:09:18.453Z,63.11
2023-10-16T05:11:44.942Z,62.53
2023-10-16T05:14:12.954Z,62.07
2023-10-16T05:16:39.360Z,61.60
2023-10-16T05:19:06.114Z,61.31
2023-10-16T05:21:32.527Z,60.82
2023-10-16T05:23:58.875Z,61.47
2023-10-16T05:26:25.296Z,62.10
2023-10-16T05:28:51.641Z,60.92
2023-10-16T05:31:17.979Z,59.52
2023-10-16T05:33:44.489Z,59.41
2023-10-16T05:36:10.853Z,60.27
2023-10-16T05:38:37.173Z,61.78
2023-10-16T05:41:03.602Z,62.03
2023-10-16T05:43:29.924Z,61.78
2023-10-16T05:45:56.335Z,61.95
2023-10-16T05:48:22.793Z,61.51
2023-10-16T05:50:49.232Z,61.11
2023-10-16T05:53:15.571Z,61.17
2023-10-16T05:55:42.310Z,60.59
2023-10-16T05:58:08.814Z,60.36
2023-10-16T06:00:35.250Z,60.44
2023-10-16T06:03:01.917Z,60.46
2023-10-16T06:05:28.432Z,60.59
2023-10-16T06:07:54.820Z,60.98
2023-10-16T06:10:21.333Z,60.94
2023-10-16T06:12:47.723Z,59.87
2023-10-16T06:15:14.104Z,59.05
2023-10-16T06:17:40.684Z,59.74
2023-10-16T06:20:07.070Z,60.03
2023-10-16T06:22:33.401Z,59.90
2023-10-16T06:24:59.997Z,59.12
2023-10-16T06:27:26.507Z,58.90
2023-10-16T06:29:53.396Z,59.23
2023-10-16T06:32:20.391Z,59.93
2023-10-16T06:34:47.041Z,59.82
2023-10-16T06:37:13.425Z,59.26
2023-10-16T06:39:39.953Z,59.91
2023-10-16T06:42:06.490Z,60.55
2023-10-16T06:44:32.904Z,60.95
2023-10-16T06:46:59.332Z,60.84
2023-10-16T06:49:26.193Z,60.67
2023-10-16T06:51:53.260Z,59.98
2023-10-16T06:54:20.248Z,59.04
2023-10-16T06:56:46.620Z,59.42
2023-10-16T06:59:12.953Z,59.17
2023-10-16T07:01:39.622Z,59.47
2023-10-16T07:04:06.087Z,59.34
2023-10-16T07:06:32.665Z,59.04
2023-10-16T07:08:59.144Z,58.34
2023-10-16T07:11:26.101Z,57.35
2023-10-16T07:13:55.949Z,57.44
2023-10-16T07:16:25.120Z,55.97
2023-10-16T07:18:52.098Z,55.57
2023-10-16T07:21:19.018Z,54.74
2023-10-16T07:23:46.136Z,54.51
2023-10-16T07:26:17.719Z,55.35
2023-10-16T07:28:52.467Z,55.14
2023-10-16T07:31:19.023Z,54.22
2023-10-16T07:33:45.391Z,54.34
2023-10-16T07:36:19.581Z,53.95
2023-10-16T07:38:47.973Z,53.81
2023-10-16T07:41:14.821Z,53.82
2023-10-16T07:43:41.251Z,54.35
2023-10-16T07:46:08.272Z,54.95
2023-10-16T07:48:34.819Z,55.19
2023-10-16T07:51:01.276Z,55.24
2023-10-16T07:53:27.624Z,54.58
2023-10-16T07:55:54.124Z,54.80
2023-10-16T07:58:20.511Z,54.36
2023-10-16T08:00:46.951Z,52.71
2023-10-16T08:03:13.503Z,53.03
2023-10-16T08:05:39.903Z,52.82
2023-10-16T08:08:06.221Z,52.86
2023-10-16T08:10:32.767Z,52.25
2023-10-16T08:12:59.118Z,52.07
2023-10-16T08:15:25.747Z,52.43
2023-10-16T08:17:52.550Z,53.27
2023-10-16T08:20:18.938Z,53.72
2023-10-16T08:22:45.263Z,54.80
2023-10-16T08:25:11.714Z,55.49
2023-10-16T08:27:38.470Z,53.97
2023-10-16T08:30:04.857Z,53.73
2023-10-16T08:32:31.271Z,53.64
2023-10-16T08:34:59.817Z,53.05
2023-10-16T08:37:34.694Z,53.63
2023-10-16T08:40:08.677Z,51.77
2023-10-16T08:42:35.282Z,50.69
2023-10-16T08:45:01.623Z,49.61
2023-10-16T08:47:28.116Z,51.44
2023-10-16T08:49:58.936Z,50.42
2023-10-16T08:52:26.050Z,49.46
2023-10-16T08:54:52.537Z,48.29
2023-10-16T08:57:19.359Z,48.33
2023-10-16T08:59:45.752Z,47.74
2023-10-16T09:02:12.185Z,47.87
2023-10-16T09:04:39.413Z,47.36
2023-10-16T09:07:05.990Z,49.60
2023-10-16T09:09:32.580Z,45.86
2023-10-16T09:11:59.262Z,46.36
2023-10-16T09:14:26.397Z,45.12
2023-10-16T09:16:53.455Z,45.11
2023-10-16T09:19:20.622Z,44.27
2023-10-16T09:21:46.975Z,44.44
2023-10-16T09:24:13.574Z,43.91
2023-10-16T09:26:39.904Z,43.89
2023-10-16T09:29:06.331Z,45.18
2023-10-16T09:31:33.062Z,43.60
2023-10-16T09:33:59.542Z,41.73
2023-10-16T09:36:25.921Z,40.03
2023-10-16T09:38:52.488Z,38.97
2023-10-16T09:41:18.803Z,38.88
2023-10-16T09:43:45.219Z,39.84
2023-10-16T09:46:11.832Z,39.21
2023-10-16T09:48:38.325Z,39.69
2023-10-16T09:51:05.350Z,39.48
2023-10-16T09:53:31.890Z,40.14
2023-10-16T09:55:58.210Z,40.74
2023-10-16T09:58:24.549Z,40.48
2023-10-16T10:00:51.094Z,39.86
2023-10-16T10:03:17.642Z,39.50
2023-10-16T10:05:44.056Z,39.02
2023-10-16T10:08:10.451Z,39.32
2023-10-16T10:10:36.875Z,39.99
2023-10-16T10:13:03.251Z,40.08
2023-10-16T10:15:29.759Z,41.73
2023-10-16T10:17:56.137Z,42.36
2023-10-16T10:20:22.509Z,42.32
2023-10-16T10:22:48.875Z,43.00
2023-10-16T10:25:20.423Z,41.97
2023-10-16T10:27:47.183Z,43.00
2023-10-16T10:30:13.607Z,41.35
2023-10-16T10:32:39.972Z,41.58
2023-10-16T10:35:06.366Z,43.61
2023-10-16T10:37:32.894Z,41.21
2023-10-16T10:39:59.305Z,43.18
2023-10-16T10:42:25.681Z,42.21
2023-10-16T10:44:52.085Z,41.90
2023-10-16T10:47:18.427Z,41.50
2023-10-16T10:49:44.764Z,40.61
2023-10-16T10:52:11.313Z,41.23
2023-10-16T10:54:37.696Z,39.83
2023-10-16T10:57:05.296Z,39.12
2023-10-16T10:59:31.925Z,39.76
2023-10-16T11:01:58.286Z,39.78
2023-10-16T11:04:24.789Z,39.61
2023-10-16T11:06:51.361Z,40.43
2023-10-16T11:09:17.757Z,39.22
2023-10-16T11:11:44.060Z,38.70
2023-10-16T11:14:10.587Z,39.03
2023-10-16T11:16:36.968Z,39.40
2023-10-16T11:19:03.423Z,38.37
2023-10-16T11:21:30.032Z,38.18
2023-10-16T11:23:56.347Z,39.16
2023-10-16T11:26:22.684Z,38.71
2023-10-16T11:28:49.187Z,38.46
2023-10-16T11:31:16.920Z,37.81
2023-10-16T11:33:43.354Z,37.99
2023-10-16T11:36:09.828Z,38.09
2023-10-16T11:38:36.214Z,39.04
2023-10-16T11:41:02.593Z,39.28
2023-10-16T11:43:29.057Z,39.21
2023-10-16T11:45:55.485Z,38.50
2023-10-16T11:48:21.917Z,38.30
2023-10-16T11:50:48.349Z,38.31
2023-10-16T11:53:14.677Z,40.07
2023-10-16T11:55:41.032Z,41.77
2023-10-16T11:58:07.627Z,40.55
2023-10-16T12:00:34.054Z,38.95
2023-10-16T12:03:00.398Z,39.14
2023-10-16T12:05:26.806Z,39.65
2023-10-16T12:07:53.187Z,39.62
2023-10-16T12:10:19.561Z,40.27
2023-10-16T12:12:46.208Z,39.48
2023-10-16T12:15:12.646Z,39.40
2023-10-16T12:17:39.247Z,39.00
2023-10-16T12:20:05.670Z,38.53
2023-10-16T12:22:32.064Z,39.04
2023-10-16T12:24:58.435Z,37.76
2023-10-16T12:27:24.989Z,37.43
2023-10-16T12:29:51.316Z,36.86
2023-10-16T12:32:17.672Z,37.29
2023-10-16T12:34:44.156Z,37.48
2023-10-16T12:37:10.759Z,37.37
2023-10-16T12:39:37.371Z,36.44
2023-10-16T12:42:03.922Z,36.13
2023-10-16T12:44:30.607Z,36.93
2023-10-16T12:46:57.251Z,36.62
2023-10-16T12:49:23.899Z,37.12
2023-10-16T12:51:50.275Z,38.35
2023-10-16T12:54:16.604Z,39.21
2023-10-16T12:56:43.129Z,38.96
2023-10-16T12:59:09.462Z,39.36
2023-10-16T13:01:35.790Z,38.19
2023-10-16T13:04:02.494Z,37.64
2023-10-16T13:06:28.937Z,37.72
2023-10-16T13:08:55.300Z,36.96
2023-10-16T13:11:21.706Z,35.90
2023-10-16T13:13:48.060Z,36.67
2023-10-16T13:16:16.417Z,36.23
2023-10-16T13:18:43.582Z,37.13
2023-10-16T13:21:10.225Z,36.35
2023-10-16T13:23:46.000Z,36.13
2023-10-16T13:26:13.533Z,35.87
2023-10-16T13:28:39.874Z,39.88
2023-10-16T13:31:06.284Z,39.52
2023-10-16T13:33:35.523Z,40.59
2023-10-16T13:36:01.830Z,41.48
2023-10-16T13:38:28.163Z,41.91
2023-10-16T13:40:54.655Z,41.03
2023-10-16T13:43:21.114Z,40.94
2023-10-16T13:45:47.490Z,40.88
2023-10-16T13:48:14.054Z,41.01
2023-10-16T13:50:40.424Z,41.00
2023-10-16T13:53:06.740Z,41.18
2023-10-16T13:55:33.147Z,41.13
2023-10-16T13:57:59.553Z,41.51
2023-10-16T14:00:26.012Z,41.28
2023-10-16T14:02:52.488Z,41.66
2023-10-16T14:05:18.923Z,42.26
2023-10-16T14:07:45.310Z,42.12
2023-10-16T14:10:11.816Z,42.02
2023-10-16T14:12:38.209Z,42.04
2023-10-16T14:15:04.562Z,42.77
2023-10-16T14:17:31.157Z,43.34
2023-10-16T14:19:57.527Z,43.41
2023-10-16T14:22:23.886Z,43.74
2023-10-16T14:24:50.277Z,43.89
2023-10-16T14:27:16.613Z,44.38
2023-10-16T14:29:42.947Z,44.85
2023-10-16T14:32:09.544Z,45.06
2023-10-16T14:34:36.081Z,45.50
2023-10-16T14:37:02.503Z,45.58
2023-10-16T14:39:28.970Z,45.50
2023-10-16T14:41:55.369Z,46.08
2023-10-16T14:44:25.210Z,46.58
2023-10-16T14:47:08.199Z,46.27
2023-10-16T14:49:34.530Z,45.51
2023-10-16T14:52:01.104Z,46.38
2023-10-16T14:54:27.998Z,45.87
2023-10-16T14:56:54.495Z,45.39
2023-10-16T14:59:23.262Z,45.49
2023-10-16T15:01:50.004Z,44.86
2023-10-16T15:04:16.550Z,44.32
2023-10-16T15:06:42.937Z,44.75
2023-10-16T15:09:09.322Z,45.10
2023-10-16T15:11:35.632Z,44.66
2023-10-16T15:14:02.006Z,45.52
2023-10-16T15:16:28.685Z,45.60
2023-10-16T15:18:55.179Z,46.44
2023-10-16T15:21:21.515Z,47.27
2023-10-16T15:23:48.133Z,47.85
2023-10-16T15:26:14.495Z,47.77
2023-10-16T15:28:46.279Z,47.80
2023-10-16T15:31:15.389Z,47.80
2023-10-16T15:33:42.387Z,48.04
2023-10-16T15:36:08.753Z,47.93
2023-10-16T15:38:35.169Z,48.47
2023-10-16T15:41:01.891Z,48.67
2023-10-16T15:43:28.336Z,48.50
2023-10-16T15:45:55.010Z,48.32
2023-10-16T15:48:21.399Z,47.76
2023-10-16T15:50:47.858Z,47.78
2023-10-16T15:53:14.392Z,48.86
2023-10-16T15:55:40.708Z,48.81
2023-10-16T15:58:07.308Z,49.66
2023-10-16T16:00:33.866Z,49.20
2023-10-16T16:03:00.265Z,49.62
2023-10-16T16:05:34.353Z,50.09
2023-10-16T16:08:01.681Z,50.10
2023-10-16T16:10:28.153Z,50.07
2023-10-16T16:12:54.655Z,50.57
2023-10-16T16:15:21.171Z,51.08
2023-10-16T16:17:47.628Z,51.26
2023-10-16T16:20:14.048Z,50.55
2023-10-16T16:22:40.464Z,51.27
2023-10-16T16:25:06.834Z,51.69
2023-10-16T16:27:33.307Z,52.38
2023-10-16T16:29:59.955Z,52.08
2023-10-16T16:32:26.304Z,51.46
2023-10-16T16:34:52.653Z,51.39
2023-10-16T16:37:19.140Z,51.76
2023-10-16T16:39:45.517Z,51.72
2023-10-16T16:42:11.863Z,51.21
2023-10-16T16:44:38.381Z,51.28
2023-10-16T16:47:04.819Z,51.30
2023-10-16T16:49:31.221Z,51.27
2023-10-16T16:51:57.687Z,51.15
2023-10-16T16:54:24.317Z,51.81
2023-10-16T16:56:50.729Z,51.25
2023-10-16T16:59:17.289Z,51.24
2023-10-16T17:01:43.642Z,51.66
2023-10-16T17:04:10.122Z,51.57
2023-10-16T17:06:36.759Z,52.08
2023-10-16T17:09:03.142Z,52.88
2023-10-16T17:11:29.865Z,52.49
2023-10-16T17:13:56.367Z,52.92
2023-10-16T17:16:22.733Z,53.38
2023-10-16T17:18:49.180Z,53.75
2023-10-16T17:21:15.684Z,53.50
2023-10-16T17:23:42.145Z,53.70
2023-10-16T17:26:08.461Z,53.55
2023-10-16T17:28:34.881Z,53.82
2023-10-16T17:31:01.273Z,53.21
2023-10-16T17:33:27.716Z,52.90
2023-10-16T17:35:54.173Z,52.75
2023-10-16T17:38:20.514Z,53.17
2023-10-16T17:40:46.848Z,53.38
2023-10-16T17:43:13.285Z,53.41
2023-10-16T17:45:39.611Z,53.37
2023-10-16T17:48:06.021Z,53.16
2023-10-16T17:50:32.544Z,53.05
2023-10-16T17:52:58.873Z,53.02
2023-10-16T17:55:25.197Z,53.09
2023-10-16T17:57:51.644Z,52.68
2023-10-16T18:00:18.027Z,53.40
2023-10-16T18:02:44.461Z,53.89
2023-10-16T18:05:10.963Z,54.29
2023-10-16T18:07:37.431Z,53.87
2023-10-16T18:10:03.728Z,53.96
2023-10-16T18:12:30.164Z,54.32
2023-10-16T18:14:56.491Z,53.83
2023-10-16T18:17:22.823Z,54.42
2023-10-16T18:19:49.454Z,54.73
2023-10-16T18:22:15.964Z,54.85
2023-10-16T18:24:42.447Z,54.80
2023-10-16T18:27:12.593Z,55.15
2023-10-16T18:29:40.308Z,55.14
2023-10-16T18:32:06.656Z,55.96
2023-10-16T18:34:33.381Z,55.77
2023-10-16T18:36:59.704Z,55.56
2023-10-16T18:39:26.103Z,55.57
2023-10-16T18:41:52.803Z,55.14
2023-10-16T18:44:19.216Z,55.28
2023-10-16T18:46:45.608Z,55.35
2023-10-16T18:49:12.095Z,54.78
2023-10-16T18:51:38.397Z,54.92
2023-10-16T18:54:04.783Z,55.09
2023-10-16T18:56:31.293Z,54.29
2023-10-16T18:58:57.605Z,54.22
2023-10-16T19:01:23.979Z,54.21
2023-10-16T19:03:50.655Z,54.21
2023-10-16T19:06:17.124Z,54.14
2023-10-16T19:08:43.646Z,54.80
2023-10-16T19:11:10.072Z,55.03
2023-10-16T19:13:36.414Z,55.34
2023-10-16T19:16:02.799Z,54.96
2023-10-16T19:18:31.656Z,54.75
2023-10-16T19:20:59.524Z,55.02
2023-10-16T19:23:27.890Z,55.70
2023-10-16T19:25:54.299Z,55.75
2023-10-16T19:28:20.658Z,55.20
2023-10-16T19:30:47.073Z,55.38
2023-10-16T19:33:13.677Z,55.47
2023-10-16T19:35:40.127Z,55.85
2023-10-16T19:38:06.470Z,55.92
2023-10-16T19:40:33.017Z,55.91
2023-10-16T19:42:59.427Z,55.75
2023-10-16T19:45:25.768Z,55.85
2023-10-16T19:47:52.368Z,56.04
2023-10-16T19:50:18.756Z,55.65
2023-10-16T19:52:45.078Z,55.81
2023-10-16T19:55:11.618Z,56.21
2023-10-16T19:57:38.018Z,56.20
2023-10-16T20:00:04.350Z,56.54
2023-10-16T20:02:30.886Z,56.83
2023-10-16T20:04:57.284Z,56.67
2023-10-16T20:07:23.621Z,57.06
2023-10-16T20:09:50.073Z,57.07
2023-10-16T20:12:19.567Z,56.29
2023-10-16T20:14:46.449Z,56.05
2023-10-16T20:17:13.493Z,56.54
2023-10-16T20:19:40.089Z,56.95
2023-10-16T20:22:06.435Z,57.41
2023-10-16T20:24:32.849Z,57.94
2023-10-16T20:26:59.263Z,57.95
2023-10-16T20:29:25.640Z,57.12
2023-10-16T20:32:00.206Z,57.15
2023-10-16T20:34:27.518Z,56.95
2023-10-16T20:36:54.253Z,57.41
2023-10-16T20:39:20.681Z,57.60
2023-10-16T20:41:47.097Z,57.07
2023-10-16T20:44:13.552Z,57.31
2023-10-16T20:46:39.886Z,56.91
2023-10-16T20:49:06.219Z,57.37
2023-10-16T20:51:32.658Z,57.34
2023-10-16T20:53:59.089Z,57.10
2023-10-16T20:56:25.411Z,57.93
2023-10-16T20:58:51.846Z,57.24
2023-10-16T21:01:18.175Z,58.04
2023-10-16T21:03:44.683Z,58.16
2023-10-16T21:06:11.165Z,57.57
2023-10-16T21:08:37.529Z,58.16
2023-10-16T21:11:03.907Z,57.99
2023-10-16T21:13:30.290Z,57.80
2023-10-16T21:15:56.652Z,57.53
2023-10-16T21:18:23.128Z,57.09
2023-10-16T21:20:49.673Z,57.40
2023-10-16T21:23:16.019Z,57.81
2023-10-16T21:25:42.324Z,57.59
2023-10-16T21:28:08.762Z,57.83
2023-10-16T21:30:35.174Z,57.52
2023-10-16T21:33:01.644Z,58.04
2023-10-16T21:35:28.163Z,58.50
2023-10-16T21:37:54.562Z,58.80
2023-10-16T21:40:21.004Z,58.68
2023-10-16T21:42:48.563Z,59.28
2023-10-16T21:45:14.981Z,59.37
2023-10-16T21:47:41.585Z,59.04
2023-10-16T21:50:08.226Z,58.62
2023-10-16T21:52:34.539Z,58.28
2023-10-16T21:55:00.870Z,58.76
2023-10-16T21:57:29.472Z,58.88
2023-10-16T21:59:56.866Z,59.04
2023-10-16T22:02:23.344Z,59.02
2023-10-16T22:05:08.061Z,58.76
2023-10-16T22:07:34.369Z,58.40
2023-10-16T22:10:00.746Z,58.43
2023-10-16T22:12:27.128Z,58.17
2023-10-16T22:14:53.503Z,57.57
2023-10-16T22:17:19.903Z,57.34
2023-10-16T22:19:46.299Z,56.62
2023-10-16T22:22:12.593Z,56.15
2023-10-16T22:24:38.935Z,55.95
2023-10-16T22:27:05.294Z,55.29
2023-10-16T22:29:33.698Z,55.04
2023-10-16T22:32:00.235Z,54.55
2023-10-16T22:34:26.723Z,54.94
2023-10-16T22:36:53.265Z,54.28
2023-10-16T22:39:19.700Z,53.70
2023-10-16T22:41:46.213Z,53.55
2023-10-16T22:44:12.507Z,53.15
2023-10-16T22:46:38.945Z,52.84
2023-10-16T22:49:05.360Z,52.70
2023-10-16T22:51:31.668Z,53.40
2023-10-16T22:53:58.092Z,52.85
2023-10-16T22:56:24.522Z,52.54
2023-10-16T22:58:50.836Z,53.04
2023-10-16T23:01:18.342Z,53.98
2023-10-16T23:03:44.925Z,53.96
2023-10-16T23:06:11.552Z,54.96
2023-10-16T23:08:37.946Z,55.80
2023-10-16T23:11:04.284Z,55.52
2023-10-16T23:13:30.570Z,55.96
2023-10-16T23:15:56.902Z,55.79
2023-10-16T23:18:23.378Z,55.98
2023-10-16T23:20:49.756Z,55.92
2023-10-16T23:23:16.126Z,54.99
2023-10-16T23:25:42.566Z,55.24
2023-10-16T23:28:08.924Z,55.36
2023-10-16T23:30:35.499Z,55.26
2023-10-16T23:33:02.067Z,55.68
2023-10-16T23:35:28.429Z,55.89
2023-10-16T23:37:54.850Z,56.85
2023-10-16T23:40:21.183Z,56.68
2023-10-16T23:42:47.522Z,56.46
2023-10-16T23:45:13.953Z,56.73
2023-10-16T23:47:40.387Z,57.21
2023-10-16T23:50:06.713Z,57.33
2023-10-16T23:52:33.126Z,57.69
2023-10-16T23:54:59.486Z,58.04
2023-10-16T23:57:25.840Z,58.27
2023-10-16T23:59:52.213Z,57.47
